createdAt,value
2018-04-26T00:01:41.606Z,23.00
2018-04-26T00:04:07.404Z,20.07
2018-04-26T00:06:33.153Z,15.33
2018-04-26T00:08:58.890Z,17.13
2018-04-26T00:11:24.645Z,18.83
2018-04-26T00:13:50.392Z,23.73
2018-04-26T00:16:16.152Z,17.63
2018-04-26T00:18:41.889Z,23.33
2018-04-26T00:21:07.627Z,16.50
2018-04-26T00:23:33.351Z,19.83
2018-04-26T00:25:59.102Z,25.07
2018-04-26T00:28:24.850Z,28.03
2018-04-26T00:30:50.600Z,24.60
2018-04-26T00:33:16.335Z,23.40
2018-04-26T00:35:42.097Z,24.13
2018-04-26T00:38:07.849Z,25.70
2018-04-26T00:40:33.610Z,27.43
2018-04-26T00:42:59.344Z,34.47
2018-04-26T00:45:25.109Z,26.13
2018-04-26T00:47:50.853Z,24.90
2018-04-26T00:50:16.597Z,23.13
2018-04-26T00:52:42.339Z,23.90
2018-04-26T00:55:08.081Z,28.40
2018-04-26T00:57:33.833Z,26.77
2018-04-26T00:59:59.558Z,28.53
2018-04-26T01:02:25.329Z,27.43
2018-04-26T01:04:51.071Z,29.30
2018-04-26T01:07:16.836Z,31.63
2018-04-26T01:09:42.585Z,28.60
2018-04-26T01:12:08.337Z,33.77
2018-04-26T01:14:34.073Z,32.77
2018-04-26T01:16:59.814Z,35.03
2018-04-26T01:19:25.569Z,36.67
2018-04-26T01:21:51.286Z,29.73
2018-04-26T01:24:17.016Z,33.13
2018-04-26T01:26:42.811Z,31.00
2018-04-26T01:29:08.499Z,33.17
2018-04-26T01:31:34.230Z,35.00
2018-04-26T01:33:59.970Z,30.90
2018-04-26T01:36:38.145Z,33.40
2018-04-26T01:39:03.880Z,32.45
2018-04-26T01:41:29.627Z,25.07
2018-04-26T01:43:55.369Z,31.20
2018-04-26T01:46:21.129Z,32.77
2018-04-26T01:48:46.880Z,31.77
2018-04-26T01:51:12.624Z,25.97
2018-04-26T01:53:38.385Z,32.93
2018-04-26T01:56:04.145Z,35.47
2018-04-26T01:58:29.872Z,27.47
2018-04-26T02:00:55.609Z,29.23
2018-04-26T02:03:21.344Z,30.47
2018-04-26T02:05:47.072Z,29.20
2018-04-26T02:08:12.816Z,25.70
2018-04-26T02:10:38.589Z,21.90
2018-04-26T02:13:04.336Z,20.50
2018-04-26T02:15:30.068Z,18.77
2018-04-26T02:17:55.809Z,20.93
2018-04-26T02:20:21.558Z,21.37
2018-04-26T02:22:47.330Z,27.33
2018-04-26T02:25:13.068Z,20.53
2018-04-26T02:27:38.803Z,21.83
2018-04-26T02:30:04.536Z,27.03
2018-04-26T02:32:30.255Z,22.07
2018-04-26T02:34:56.007Z,23.17
2018-04-26T02:37:21.765Z,26.03
2018-04-26T02:39:47.494Z,23.83
2018-04-26T02:42:13.261Z,21.80
2018-04-26T02:44:38.997Z,25.70
2018-04-26T02:47:04.753Z,23.33
2018-04-26T02:49:30.500Z,24.30
2018-04-26T02:51:56.243Z,21.43
2018-04-26T02:54:21.993Z,21.50
2018-04-26T02:56:47.737Z,25.50
2018-04-26T02:59:13.477Z,22.37
2018-04-26T03:01:39.232Z,23.57
2018-04-26T03:04:04.973Z,25.57
2018-04-26T03:06:30.713Z,22.33
2018-04-26T03:08:56.456Z,22.73
2018-04-26T03:11:22.196Z,28.37
2018-04-26T03:13:47.945Z,23.50
2018-04-26T03:16:13.668Z,27.80
2018-04-26T03:18:39.408Z,22.77
2018-04-26T03:21:05.190Z,21.87
2018-04-26T03:23:30.882Z,23.20
2018-04-26T03:25:56.608Z,23.03
2018-04-26T03:28:22.343Z,25.77
2018-04-26T03:30:48.072Z,25.30
2018-04-26T03:33:13.812Z,22.43
2018-04-26T03:35:39.535Z,21.17
2018-04-26T03:38:08.387Z,25.87
2018-04-26T03:40:34.121Z,24.48
2018-04-26T03:42:59.864Z,22.43
2018-04-26T03:45:25.584Z,25.33
2018-04-26T03:47:51.321Z,25.20
2018-04-26T03:50:17.059Z,24.70
2018-04-26T03:52:42.797Z,20.77
2018-04-26T03:55:08.529Z,22.23
2018-04-26T03:57:34.261Z,26.63
2018-04-26T04:00:12.436Z,26.80
2018-04-26T04:02:50.629Z,19.98
2018-04-26T04:05:28.809Z,19.15
2018-04-26T04:07:54.543Z,21.45
2018-04-26T04:10:20.260Z,25.30
2018-04-26T04:12:46.389Z,15.37
2018-04-26T04:15:12.121Z,15.02
2018-04-26T04:17:37.848Z,18.30
2018-04-26T04:20:03.571Z,13.77
2018-04-26T04:22:29.310Z,17.93
2018-04-26T04:24:55.036Z,21.77
2018-04-26T04:27:20.769Z,24.47
2018-04-26T04:29:46.501Z,33.93
2018-04-26T04:32:12.228Z,23.70
2018-04-26T04:34:37.958Z,21.63
2018-04-26T04:37:03.700Z,28.80
2018-04-26T04:39:29.438Z,27.03
2018-04-26T04:41:55.160Z,29.30
2018-04-26T04:44:20.893Z,32.37
2018-04-26T04:46:46.624Z,23.57
2018-04-26T04:49:12.365Z,24.07
2018-04-26T04:51:38.076Z,26.73
2018-04-26T04:54:03.835Z,25.60
2018-04-26T04:56:29.566Z,26.47
2018-04-26T04:58:55.304Z,24.37
2018-04-26T05:01:21.043Z,31.40
2018-04-26T05:03:46.777Z,31.93
2018-04-26T05:06:12.508Z,36.57
2018-04-26T05:08:38.255Z,42.83
2018-04-26T05:11:03.992Z,46.63
2018-04-26T05:13:29.738Z,35.00
2018-04-26T05:15:55.472Z,67.97
2018-04-26T05:18:21.242Z,40.57
2018-04-26T05:20:46.979Z,31.80
2018-04-26T05:23:12.730Z,33.47
2018-04-26T05:25:38.509Z,33.03
2018-04-26T05:28:04.207Z,21.53
2018-04-26T05:30:29.949Z,29.70
2018-04-26T05:32:55.677Z,32.30
2018-04-26T05:35:21.422Z,33.40
2018-04-26T05:37:47.159Z,24.60
2018-04-26T05:40:12.905Z,29.60
2018-04-26T05:42:38.632Z,29.03
2018-04-26T05:45:04.385Z,16.90
2018-04-26T05:47:30.116Z,36.50
2018-04-26T05:49:55.866Z,27.33
2018-04-26T05:52:21.608Z,17.60
2018-04-26T05:54:47.372Z,25.00
2018-04-26T05:57:13.112Z,20.27
2018-04-26T05:59:38.849Z,17.20
2018-04-26T06:02:04.592Z,17.33
2018-04-26T06:04:30.332Z,14.50
2018-04-26T06:06:56.061Z,17.20
2018-04-26T06:09:21.803Z,13.93
2018-04-26T06:11:47.544Z,11.50
2018-04-26T06:14:13.285Z,11.50
2018-04-26T06:16:39.023Z,13.97
2018-04-26T06:19:04.768Z,13.87
2018-04-26T06:21:30.512Z,12.97
2018-04-26T06:23:56.257Z,14.83
2018-04-26T06:26:21.989Z,10.47
2018-04-26T06:28:47.737Z,14.10
2018-04-26T06:31:13.464Z,15.57
2018-04-26T06:33:39.223Z,14.57
2018-04-26T06:36:04.974Z,15.60
2018-04-26T06:38:30.705Z,13.23
2018-04-26T06:40:56.437Z,10.70
2018-04-26T06:43:22.168Z,12.10
2018-04-26T06:45:47.908Z,11.17
2018-04-26T06:48:13.656Z,15.97
2018-04-26T06:50:39.383Z,12.07
2018-04-26T06:53:05.114Z,16.33
2018-04-26T06:55:30.877Z,15.70
2018-04-26T06:57:56.609Z,15.23
2018-04-26T07:00:22.413Z,16.97
2018-04-26T07:02:48.096Z,24.83
2018-04-26T07:05:13.837Z,17.97
2018-04-26T07:07:39.572Z,15.17
2018-04-26T07:10:05.320Z,15.93
2018-04-26T07:12:31.057Z,13.80
2018-04-26T07:14:56.791Z,17.13
2018-04-26T07:17:22.516Z,14.43
2018-04-26T07:19:48.240Z,20.00
2018-04-26T07:22:13.976Z,17.30
2018-04-26T07:24:39.701Z,14.27
2018-04-26T07:27:05.436Z,14.57
2018-04-26T07:29:31.167Z,15.23
2018-04-26T07:31:56.908Z,17.47
2018-04-26T07:34:22.653Z,18.77
2018-04-26T07:36:48.396Z,18.67
2018-04-26T07:39:14.132Z,12.57
2018-04-26T07:41:39.877Z,14.93
2018-04-26T07:44:05.613Z,17.13
2018-04-26T07:46:31.373Z,14.87
2018-04-26T07:48:57.120Z,13.40
2018-04-26T07:51:22.848Z,14.20
2018-04-26T07:53:48.584Z,10.47
2018-04-26T07:56:14.296Z,14.13
2018-04-26T07:58:40.025Z,14.93
2018-04-26T08:01:05.752Z,13.77
2018-04-26T08:03:31.481Z,12.87
2018-04-26T08:05:57.209Z,10.93
2018-04-26T08:08:22.941Z,15.47
2018-04-26T08:10:48.673Z,12.03
2018-04-26T08:13:14.418Z,15.90
2018-04-26T08:15:40.145Z,13.33
2018-04-26T08:18:05.885Z,13.67
2018-04-26T08:20:31.636Z,11.73
2018-04-26T08:22:57.365Z,13.87
2018-04-26T08:25:23.085Z,11.07
2018-04-26T08:27:48.824Z,13.70
2018-04-26T08:30:14.555Z,10.77
2018-04-26T08:32:40.301Z,13.13
2018-04-26T08:35:06.045Z,11.70
2018-04-26T08:37:31.793Z,10.83
2018-04-26T08:39:57.557Z,11.03
2018-04-26T08:42:23.280Z,9.63
2018-04-26T08:44:49.022Z,13.37
2018-04-26T08:47:14.731Z,12.87
2018-04-26T08:49:40.473Z,6.50
2018-04-26T08:52:06.189Z,13.10
2018-04-26T08:54:31.940Z,13.33
2018-04-26T08:56:57.689Z,9.07
2018-04-26T08:59:23.433Z,9.53
2018-04-26T09:01:49.161Z,9.90
2018-04-26T09:04:14.909Z,8.70
2018-04-26T09:06:40.701Z,8.50
2018-04-26T09:09:06.380Z,7.57
2018-04-26T09:11:32.118Z,6.47
2018-04-26T09:13:57.862Z,8.50
2018-04-26T09:16:23.590Z,8.47
2018-04-26T09:18:49.352Z,9.47
2018-04-26T09:21:15.085Z,8.43
2018-04-26T09:23:40.817Z,7.13
2018-04-26T09:26:06.556Z,8.47
2018-04-26T09:28:32.288Z,6.00
2018-04-26T09:30:58.029Z,7.70
2018-04-26T09:33:23.764Z,8.77
2018-04-26T09:35:56.516Z,6.70
2018-04-26T09:38:22.253Z,8.23
2018-04-26T09:40:47.991Z,8.17
2018-04-26T09:43:13.731Z,10.23
2018-04-26T09:45:39.484Z,6.47
2018-04-26T09:48:05.225Z,6.87
2018-04-26T09:50:30.976Z,11.80
2018-04-26T09:52:56.718Z,11.13
2018-04-26T09:55:22.538Z,8.37
2018-04-26T09:57:48.205Z,8.20
2018-04-26T10:03:16.576Z,11.03
2018-04-26T10:05:48.513Z,6.97
2018-04-26T10:08:14.260Z,7.37
2018-04-26T10:10:40.016Z,5.67
2018-04-26T10:13:05.761Z,7.43
2018-04-26T10:15:31.523Z,5.47
2018-04-26T10:17:57.253Z,5.97
2018-04-26T10:20:22.983Z,7.27
2018-04-26T10:22:48.725Z,9.27
2018-04-26T10:25:14.452Z,5.87
2018-04-26T10:27:40.191Z,6.93
2018-04-26T10:30:05.976Z,6.47
2018-04-26T10:32:31.668Z,8.37
2018-04-26T10:34:57.392Z,6.57
2018-04-26T10:37:23.129Z,5.03
2018-04-26T10:39:48.856Z,7.33
2018-04-26T10:42:14.606Z,5.83
2018-04-26T10:44:41.305Z,7.37
2018-04-26T10:47:07.065Z,4.67
2018-04-26T10:49:32.792Z,5.83
2018-04-26T10:51:58.537Z,10.53
2018-04-26T10:54:24.280Z,7.60
2018-04-26T10:56:50.020Z,9.63
2018-04-26T10:59:15.740Z,7.57
2018-04-26T11:01:41.473Z,6.90
2018-04-26T11:04:07.200Z,5.90
2018-04-26T11:06:32.940Z,6.10
2018-04-26T11:08:58.654Z,6.63
2018-04-26T11:11:24.399Z,3.70
2018-04-26T11:13:50.125Z,5.03
2018-04-26T11:16:15.898Z,5.33
2018-04-26T11:18:41.626Z,6.33
2018-04-26T11:21:07.389Z,6.40
2018-04-26T11:23:33.116Z,5.97
2018-04-26T11:25:58.860Z,4.80
2018-04-26T11:28:24.589Z,5.23
2018-04-26T11:30:50.328Z,6.63
2018-04-26T11:33:16.065Z,4.10
2018-04-26T11:35:41.804Z,4.83
2018-04-26T11:38:07.542Z,4.23
2018-04-26T11:40:33.288Z,5.03
2018-04-26T11:42:59.025Z,5.27
2018-04-26T11:45:24.757Z,6.00
2018-04-26T11:47:50.493Z,3.40
2018-04-26T11:50:16.233Z,5.03
2018-04-26T11:52:41.967Z,6.10
2018-04-26T11:55:07.705Z,6.00
2018-04-26T11:57:33.446Z,6.17
2018-04-26T11:59:59.192Z,7.70
2018-04-26T12:02:24.965Z,7.87
2018-04-26T12:04:50.672Z,9.60
2018-04-26T12:07:16.429Z,6.50
2018-04-26T12:09:42.176Z,5.03
2018-04-26T12:12:07.920Z,5.33
2018-04-26T12:14:33.649Z,5.97
2018-04-26T12:16:59.388Z,6.20
2018-04-26T12:19:25.119Z,5.83
2018-04-26T12:21:50.858Z,4.37
2018-04-26T12:24:16.596Z,6.03
2018-04-26T12:26:42.341Z,4.77
2018-04-26T12:29:08.069Z,5.63
2018-04-26T12:31:33.797Z,6.77
2018-04-26T12:33:59.537Z,7.77
2018-04-26T12:36:25.282Z,5.47
2018-04-26T12:38:51.041Z,8.73
2018-04-26T12:41:16.768Z,7.13
2018-04-26T12:43:42.516Z,5.03
2018-04-26T12:46:08.246Z,8.53
2018-04-26T12:48:33.985Z,8.07
2018-04-26T12:50:59.717Z,4.07
2018-04-26T12:53:25.460Z,6.67
2018-04-26T12:55:51.208Z,4.63
2018-04-26T12:58:17.025Z,7.67
2018-04-26T13:00:42.692Z,7.13
2018-04-26T13:03:08.454Z,7.07
2018-04-26T13:05:34.196Z,6.53
2018-04-26T13:07:59.973Z,6.40
2018-04-26T13:10:25.695Z,5.77
2018-04-26T13:12:51.457Z,6.90
2018-04-26T13:15:17.206Z,6.50
2018-04-26T13:17:42.956Z,5.20
2018-04-26T13:20:08.706Z,7.63
2018-04-26T13:22:34.455Z,7.20
2018-04-26T13:25:00.194Z,6.10
2018-04-26T13:27:26.027Z,7.70
2018-04-26T13:29:51.788Z,6.53
2018-04-26T13:32:17.465Z,7.47
2018-04-26T13:34:43.222Z,8.93
2018-04-26T13:37:08.976Z,8.00
2018-04-26T13:39:34.740Z,6.00
2018-04-26T13:42:00.473Z,7.90
2018-04-26T13:44:26.220Z,6.13
2018-04-26T13:46:51.964Z,8.73
2018-04-26T13:49:17.730Z,6.67
2018-04-26T13:51:43.490Z,7.53
2018-04-26T13:54:09.327Z,7.30
2018-04-26T13:56:35.073Z,6.43
2018-04-26T13:59:00.838Z,8.73
2018-04-26T14:01:26.568Z,7.20
2018-04-26T14:03:52.315Z,6.50
2018-04-26T14:06:18.096Z,8.77
2018-04-26T14:08:43.853Z,9.03
2018-04-26T14:11:09.596Z,4.00
2018-04-26T14:13:35.348Z,6.47
2018-04-26T14:16:01.097Z,8.00
2018-04-26T14:18:27.265Z,6.30
2018-04-26T14:20:53.017Z,6.37
2018-04-26T14:23:18.805Z,7.37
2018-04-26T14:25:44.533Z,7.07
2018-04-26T14:28:10.281Z,6.73
2018-04-26T14:30:36.033Z,10.93
2018-04-26T14:33:01.772Z,6.67
2018-04-26T14:35:29.136Z,6.80
2018-04-26T14:37:55.050Z,7.40
2018-04-26T14:40:22.224Z,5.23
2018-04-26T14:42:49.194Z,5.67
2018-04-26T14:45:18.214Z,6.83
2018-04-26T14:47:45.772Z,8.83
2018-04-26T14:50:13.257Z,4.60
2018-04-26T14:52:41.586Z,10.60
2018-04-26T14:55:07.428Z,8.60
2018-04-26T14:57:33.514Z,11.43
2018-04-26T15:00:02.781Z,6.23
2018-04-26T15:02:32.898Z,5.53
2018-04-26T15:04:59.107Z,8.57
2018-04-26T15:07:28.221Z,8.53
2018-04-26T15:09:55.179Z,5.70
2018-04-26T15:12:21.484Z,6.93
2018-04-26T15:14:50.177Z,8.00
2018-04-26T15:17:16.927Z,8.07
2018-04-26T15:19:43.462Z,5.77
2018-04-26T15:22:10.133Z,7.80
2018-04-26T15:24:36.521Z,11.03
2018-04-26T15:27:02.319Z,8.73
2018-04-26T15:29:28.521Z,9.30
2018-04-26T15:31:54.932Z,6.77
2018-04-26T15:34:21.223Z,7.30
2018-04-26T15:36:47.453Z,9.17
2018-04-26T15:39:13.758Z,5.70
2018-04-26T15:41:40.217Z,8.27
2018-04-26T15:44:06.048Z,8.30
2018-04-26T15:46:31.907Z,6.50
2018-04-26T15:48:57.652Z,6.10
2018-04-26T15:51:23.469Z,10.03
2018-04-26T15:54:01.742Z,7.57
2018-04-26T15:56:46.200Z,5.80
2018-04-26T15:59:24.401Z,8.47
2018-04-26T16:05:23.328Z,7.80
2018-04-26T16:08:07.882Z,8.80
2018-04-26T16:10:52.417Z,6.47
2018-04-26T16:16:48.124Z,8.80
2018-04-26T16:19:32.625Z,10.90
2018-04-26T16:22:16.841Z,8.23
2018-04-26T16:24:55.112Z,7.13
2018-04-26T16:27:39.429Z,5.73
2018-04-26T16:30:17.595Z,11.20
2018-04-26T16:33:02.219Z,12.67
2018-04-26T16:35:40.398Z,7.10
2018-04-26T16:38:18.578Z,12.00
2018-04-26T16:40:44.353Z,9.43
2018-04-26T16:43:11.245Z,13.20
2018-04-26T16:45:38.020Z,10.07
2018-04-26T16:48:03.794Z,9.70
2018-04-26T16:50:29.557Z,14.30
2018-04-26T16:52:55.329Z,10.63
2018-04-26T16:55:21.126Z,12.33
2018-04-26T16:57:46.872Z,10.03
2018-04-26T17:00:12.614Z,9.23
2018-04-26T17:02:38.368Z,10.10
2018-04-26T17:05:04.108Z,9.03
2018-04-26T17:07:29.833Z,8.40
2018-04-26T17:09:55.568Z,15.10
2018-04-26T17:12:21.300Z,8.73
2018-04-26T17:14:47.037Z,9.30
2018-04-26T17:17:12.783Z,9.70
2018-04-26T17:19:38.534Z,12.77
2018-04-26T17:22:04.277Z,10.00
2018-04-26T17:24:30.024Z,8.07
2018-04-26T17:26:55.757Z,10.00
2018-04-26T17:29:21.497Z,10.30
2018-04-26T17:31:47.238Z,14.17
2018-04-26T17:34:12.968Z,12.47
2018-04-26T17:36:38.688Z,12.77
2018-04-26T17:39:04.437Z,15.03
2018-04-26T17:41:30.189Z,13.30
2018-04-26T17:43:55.919Z,13.30
2018-04-26T17:46:21.677Z,12.93
2018-04-26T17:48:47.417Z,9.20
2018-04-26T17:51:13.177Z,10.30
2018-04-26T17:53:38.909Z,12.07
2018-04-26T17:56:04.662Z,13.07
2018-04-26T17:58:30.424Z,14.87
2018-04-26T18:00:56.564Z,11.77
2018-04-26T18:03:22.336Z,15.97
2018-04-26T18:05:48.126Z,17.50
2018-04-26T18:08:13.864Z,12.93
2018-04-26T18:10:39.605Z,17.37
2018-04-26T18:13:05.345Z,13.80
2018-04-26T18:15:31.094Z,14.70
2018-04-26T18:17:56.833Z,16.83
2018-04-26T18:20:22.583Z,18.93
2018-04-26T18:22:48.320Z,18.37
2018-04-26T18:25:14.125Z,18.70
2018-04-26T18:27:39.820Z,16.13
2018-04-26T18:30:05.577Z,12.83
2018-04-26T18:32:31.317Z,13.30
2018-04-26T18:34:57.048Z,20.87
2018-04-26T18:37:22.792Z,14.37
2018-04-26T18:39:48.525Z,13.07
2018-04-26T18:42:14.277Z,12.33
2018-04-26T18:44:40.009Z,20.17
2018-04-26T18:47:05.769Z,14.57
2018-04-26T18:49:31.523Z,15.43
2018-04-26T18:51:57.268Z,19.20
2018-04-26T18:54:23.017Z,12.33
2018-04-26T18:56:48.760Z,15.37
2018-04-26T18:59:14.532Z,17.00
2018-04-26T19:01:40.285Z,14.60
2018-04-26T19:04:06.019Z,12.33
2018-04-26T19:06:31.796Z,13.03
2018-04-26T19:08:57.548Z,16.33
2018-04-26T19:11:23.278Z,14.60
2018-04-26T19:13:49.036Z,19.90
2018-04-26T19:16:14.764Z,14.30
2018-04-26T19:18:40.510Z,15.50
2018-04-26T19:21:06.292Z,21.50
2018-04-26T19:23:32.008Z,17.90
2018-04-26T19:25:57.737Z,12.53
2018-04-26T19:28:23.488Z,17.70
2018-04-26T19:30:49.230Z,14.77
2018-04-26T19:33:14.981Z,15.90
2018-04-26T19:35:40.712Z,11.23
2018-04-26T19:38:06.452Z,14.63
2018-04-26T19:40:32.187Z,19.53
2018-04-26T19:42:57.945Z,14.47
2018-04-26T19:45:23.677Z,15.47
2018-04-26T19:47:49.425Z,14.07
2018-04-26T19:50:15.169Z,16.20
2018-04-26T19:52:40.904Z,20.60
2018-04-26T19:55:06.657Z,18.83
2018-04-26T19:57:32.393Z,18.37
2018-04-26T19:59:58.194Z,21.90
2018-04-26T20:02:23.924Z,17.90
2018-04-26T20:04:49.688Z,21.33
2018-04-26T20:07:15.449Z,22.10
2018-04-26T20:09:41.209Z,18.43
2018-04-26T20:12:06.950Z,21.00
2018-04-26T20:14:32.698Z,16.13
2018-04-26T20:16:58.446Z,22.43
2018-04-26T20:19:24.200Z,24.13
2018-04-26T20:21:49.936Z,17.27
2018-04-26T20:24:15.684Z,20.90
2018-04-26T20:26:41.441Z,14.93
2018-04-26T20:29:07.185Z,19.53
2018-04-26T20:31:32.941Z,20.00
2018-04-26T20:33:58.688Z,21.63
2018-04-26T20:36:24.443Z,21.63
2018-04-26T20:38:50.196Z,18.03
2018-04-26T20:41:15.944Z,23.10
2018-04-26T20:43:41.689Z,21.33
2018-04-26T20:46:07.453Z,16.60
2018-04-26T20:48:40.252Z,16.60
2018-04-26T20:51:06.001Z,17.73
2018-04-26T20:53:31.740Z,23.77
2018-04-26T20:55:57.527Z,23.07
2018-04-26T20:58:23.276Z,18.80
2018-04-26T21:00:49.017Z,20.53
2018-04-26T21:03:14.749Z,22.80
2018-04-26T21:05:40.491Z,19.43
2018-04-26T21:08:06.222Z,16.70
2018-04-26T21:10:31.976Z,16.03
2018-04-26T21:13:04.680Z,23.40
2018-04-26T21:15:30.424Z,14.38
2018-04-26T21:17:56.165Z,16.50
2018-04-26T21:20:21.913Z,17.67
2018-04-26T21:22:47.661Z,20.20
2018-04-26T21:25:13.399Z,21.33
2018-04-26T21:27:39.141Z,19.87
2018-04-26T21:30:04.880Z,20.17
2018-04-26T21:32:30.617Z,19.57
2018-04-26T21:34:56.352Z,19.80
2018-04-26T21:37:22.102Z,18.00
2018-04-26T21:39:48.090Z,21.97
2018-04-26T21:42:13.877Z,18.20
2018-04-26T21:44:39.625Z,20.33
2018-04-26T21:47:05.356Z,16.53
2018-04-26T21:49:31.029Z,19.73
2018-04-26T21:52:02.864Z,14.23
2018-04-26T21:54:34.795Z,20.52
2018-04-26T21:57:06.621Z,18.67
2018-04-26T21:59:38.913Z,19.58
2018-04-26T22:02:10.788Z,21.73
2018-04-26T22:04:36.590Z,20.23
2018-04-26T22:07:02.380Z,16.20
2018-04-26T22:09:28.156Z,15.10
2018-04-26T22:11:53.910Z,18.50
2018-04-26T22:14:19.657Z,17.63
2018-04-26T22:16:45.428Z,19.37
2018-04-26T22:19:11.177Z,17.03
2018-04-26T22:21:36.918Z,19.10
2018-04-26T22:24:02.714Z,16.00
2018-04-26T22:26:28.473Z,18.83
2018-04-26T22:28:54.220Z,18.37
2018-04-26T22:31:20.025Z,16.10
2018-04-26T22:33:45.769Z,20.63
2018-04-26T22:36:11.521Z,15.43
2018-04-26T22:38:37.278Z,15.03
2018-04-26T22:41:03.020Z,13.07
2018-04-26T22:43:28.809Z,19.43
2018-04-26T22:45:54.576Z,11.07
2018-04-26T22:48:20.358Z,15.03
2018-04-26T22:50:46.101Z,13.20
2018-04-26T22:53:11.852Z,12.03
2018-04-26T22:55:37.601Z,17.97
2018-04-26T22:58:03.329Z,12.67
2018-04-26T23:00:29.061Z,12.80
2018-04-26T23:02:54.804Z,12.20
2018-04-26T23:05:20.600Z,13.87
2018-04-26T23:07:46.333Z,12.97
2018-04-26T23:10:12.145Z,15.13
2018-04-26T23:12:37.905Z,15.63
2018-04-26T23:15:03.691Z,10.40
2018-04-26T23:17:29.420Z,13.03
2018-04-26T23:19:55.168Z,13.73
2018-04-26T23:22:21.146Z,12.30
2018-04-26T23:24:46.954Z,11.57
2018-04-26T23:27:12.693Z,14.30
2018-04-26T23:29:38.445Z,12.13
2018-04-26T23:32:04.225Z,11.37
2018-04-26T23:34:30.008Z,13.60
2018-04-26T23:36:55.740Z,11.37
2018-04-26T23:39:21.481Z,19.27
2018-04-26T23:41:47.215Z,12.43
2018-04-26T23:44:12.969Z,10.23
2018-04-26T23:46:38.717Z,11.53
2018-04-26T23:49:04.465Z,9.87
2018-04-26T23:51:30.216Z,10.37
2018-04-26T23:53:55.980Z,14.17
2018-04-26T23:56:21.761Z,12.10
2018-04-26T23:58:47.516Z,10.73
